Smethport, Pennsylvania
Current Conditions -  °F | °C
As of 1:53 PM on Tuesday 21 Oct 2014 (Local Time) from KBFD Reporting Station
Light Rain Light Rain  
Wind Chill: 50°   Ceiling: 5000
Heat Index: 50°   Visibility: 9mi
Dew Point: 43°   Wind: 5mph
Humidity: 77%   Direction: 340°NNW
Pressure: 29.85"   Gusts: NA
Location:  41.81°N, 78.44°W
Report Text: KBFD 211753Z AUTO 34004KT 9SM -RA FEW007 SCT035 OVC050 10/06 A2985 RMK AO2 RAB33 SLP112 P0001 60002 T01000061 10100 20083 50000
Loading
Personal Weather Stations






























Interactive Weather Map
Tropical Storm Tracking
New forecast layout! Learn more

10-Day Weather Forecast

Advertisements
Track Severe Weather on mobile